sensor_id;sensor_type;location;lat;lon;timestamp;temperature;humidity
55369;DHT22;41247;49.736;8.752;2022-10-19T00:01:15;14.10;99.90
55369;DHT22;41247;49.736;8.752;2022-10-19T00:04:57;14.10;99.90
55369;DHT22;41247;49.736;8.752;2022-10-19T00:08:38;14.00;99.90
55369;DHT22;41247;49.736;8.752;2022-10-19T00:12:18;14.10;99.90
55369;DHT22;41247;49.736;8.752;2022-10-19T00:15:59;14.00;99.90
55369;DHT22;41247;49.736;8.752;2022-10-19T00:19:39;14.00;99.90
55369;DHT22;41247;49.736;8.752;2022-10-19T00:23:20;13.90;99.90
55369;DHT22;41247;49.736;8.752;2022-10-19T00:27:01;13.90;99.90
55369;DHT22;41247;49.736;8.752;2022-10-19T00:30:41;13.90;99.90
55369;DHT22;41247;49.736;8.752;2022-10-19T00:34:22;13.90;99.90
55369;DHT22;41247;49.736;8.752;2022-10-19T00:38:02;13.90;99.90
55369;DHT22;41247;49.736;8.752;2022-10-19T00:41:50;13.80;99.90
55369;DHT22;41247;49.736;8.752;2022-10-19T00:45:31;13.90;99.90
55369;DHT22;41247;49.736;8.752;2022-10-19T00:49:18;13.90;99.90
55369;DHT22;41247;49.736;8.752;2022-10-19T00:53:00;13.80;99.90
55369;DHT22;41247;49.736;8.752;2022-10-19T00:56:42;13.90;99.90
55369;DHT22;41247;49.736;8.752;2022-10-19T01:00:24;13.90;99.90
55369;DHT22;41247;49.736;8.752;2022-10-19T01:04:05;13.80;99.90
55369;DHT22;41247;49.736;8.752;2022-10-19T01:07:46;13.90;99.90
55369;DHT22;41247;49.736;8.752;2022-10-19T01:24:21;13.90;99.90
55369;DHT22;41247;49.736;8.752;2022-10-19T01:28:31;13.80;99.90
55369;DHT22;41247;49.736;8.752;2022-10-19T01:41:11;13.80;99.90
55369;DHT22;41247;49.736;8.752;2022-10-19T01:45:35;13.80;99.90
55369;DHT22;41247;49.736;8.752;2022-10-19T01:49:28;13.80;99.90
55369;DHT22;41247;49.736;8.752;2022-10-19T01:53:13;13.80;99.90
55369;DHT22;41247;49.736;8.752;2022-10-19T01:56:59;13.70;99.90
55369;DHT22;41247;49.736;8.752;2022-10-19T02:00:42;13.70;99.90
55369;DHT22;41247;49.736;8.752;2022-10-19T02:04:25;13.70;99.90
55369;DHT22;41247;49.736;8.752;2022-10-19T02:08:13;13.70;99.90
55369;DHT22;41247;49.736;8.752;2022-10-19T02:12:00;13.60;99.90
55369;DHT22;41247;49.736;8.752;2022-10-19T02:15:51;13.60;99.90
55369;DHT22;41247;49.736;8.752;2022-10-19T02:19:34;13.50;99.90
55369;DHT22;41247;49.736;8.752;2022-10-19T02:23:18;13.50;99.90
55369;DHT22;41247;49.736;8.752;2022-10-19T02:27:23;13.40;99.90
55369;DHT22;41247;49.736;8.752;2022-10-19T02:31:42;13.40;99.90
55369;DHT22;41247;49.736;8.752;2022-10-19T02:35:22;13.30;99.90
55369;DHT22;41247;49.736;8.752;2022-10-19T02:39:03;13.20;99.90
55369;DHT22;41247;49.736;8.752;2022-10-19T02:43:19;13.20;99.90
55369;DHT22;41247;49.736;8.752;2022-10-19T02:47:17;13.20;99.90
55369;DHT22;41247;49.736;8.752;2022-10-19T02:51:02;13.20;99.90
55369;DHT22;41247;49.736;8.752;2022-10-19T02:55:35;13.30;99.90
55369;DHT22;41247;49.736;8.752;2022-10-19T02:59:51;13.30;99.90
55369;DHT22;41247;49.736;8.752;2022-10-19T03:03:44;13.30;99.90
55369;DHT22;41247;49.736;8.752;2022-10-19T03:07:26;13.30;99.90
55369;DHT22;41247;49.736;8.752;2022-10-19T03:11:11;13.30;99.90
55369;DHT22;41247;49.736;8.752;2022-10-19T03:19:58;13.30;99.90
55369;DHT22;41247;49.736;8.752;2022-10-19T03:23:39;13.30;99.90
55369;DHT22;41247;49.736;8.752;2022-10-19T03:27:20;13.20;99.90
55369;DHT22;41247;49.736;8.752;2022-10-19T03:31:00;13.10;99.90
55369;DHT22;41247;49.736;8.752;2022-10-19T03:34:42;13.10;99.90
55369;DHT22;41247;49.736;8.752;2022-10-19T03:38:30;13.00;99.90
55369;DHT22;41247;49.736;8.752;2022-10-19T03:42:10;13.00;99.90
55369;DHT22;41247;49.736;8.752;2022-10-19T03:50:46;12.80;99.90
55369;DHT22;41247;49.736;8.752;2022-10-19T03:54:44;12.70;99.90
55369;DHT22;41247;49.736;8.752;2022-10-19T03:58:25;12.70;99.90
55369;DHT22;41247;49.736;8.752;2022-10-19T04:02:05;12.60;99.90
55369;DHT22;41247;49.736;8.752;2022-10-19T04:05:46;12.60;99.90
55369;DHT22;41247;49.736;8.752;2022-10-19T04:09:26;12.50;99.90
55369;DHT22;41247;49.736;8.752;2022-10-19T04:13:07;12.50;99.90
55369;DHT22;41247;49.736;8.752;2022-10-19T04:16:48;12.40;99.90
55369;DHT22;41247;49.736;8.752;2022-10-19T04:20:28;12.40;99.90
55369;DHT22;41247;49.736;8.752;2022-10-19T04:24:12;12.20;99.90
55369;DHT22;41247;49.736;8.752;2022-10-19T04:27:53;12.10;99.90
55369;DHT22;41247;49.736;8.752;2022-10-19T04:31:34;12.10;99.90
55369;DHT22;41247;49.736;8.752;2022-10-19T04:35:14;12.00;99.90
55369;DHT22;41247;49.736;8.752;2022-10-19T04:38:55;12.00;99.90
55369;DHT22;41247;49.736;8.752;2022-10-19T04:42:36;11.90;99.90
55369;DHT22;41247;49.736;8.752;2022-10-19T04:46:18;11.90;99.90
55369;DHT22;41247;49.736;8.752;2022-10-19T04:49:59;11.80;99.90
55369;DHT22;41247;49.736;8.752;2022-10-19T04:53:41;11.70;99.90
55369;DHT22;41247;49.736;8.752;2022-10-19T04:57:22;11.60;99.90
55369;DHT22;41247;49.736;8.752;2022-10-19T05:01:17;11.50;99.90
55369;DHT22;41247;49.736;8.752;2022-10-19T05:04:59;11.50;99.90
55369;DHT22;41247;49.736;8.752;2022-10-19T05:08:40;11.30;99.90
55369;DHT22;41247;49.736;8.752;2022-10-19T05:12:20;11.30;99.90
55369;DHT22;41247;49.736;8.752;2022-10-19T05:16:02;11.20;99.90
55369;DHT22;41247;49.736;8.752;2022-10-19T05:19:44;11.10;99.90
55369;DHT22;41247;49.736;8.752;2022-10-19T05:23:31;11.10;99.90
55369;DHT22;41247;49.736;8.752;2022-10-19T05:27:11;11.00;99.90
55369;DHT22;41247;49.736;8.752;2022-10-19T05:30:52;10.90;99.90
55369;DHT22;41247;49.736;8.752;2022-10-19T05:34:32;10.90;99.90
55369;DHT22;41247;49.736;8.752;2022-10-19T05:38:13;11.00;99.90
55369;DHT22;41247;49.736;8.752;2022-10-19T05:42:11;11.30;99.90
55369;DHT22;41247;49.736;8.752;2022-10-19T05:46:49;11.50;99.90
55369;DHT22;41247;49.736;8.752;2022-10-19T05:50:59;11.70;99.90
55369;DHT22;41247;49.736;8.752;2022-10-19T05:54:52;11.80;99.90
55369;DHT22;41247;49.736;8.752;2022-10-19T06:03:05;11.90;99.90
55369;DHT22;41247;49.736;8.752;2022-10-19T06:06:57;11.90;99.90
55369;DHT22;41247;49.736;8.752;2022-10-19T06:10:45;12.00;99.90
55369;DHT22;41247;49.736;8.752;2022-10-19T06:20:01;12.20;99.90
55369;DHT22;41247;49.736;8.752;2022-10-19T06:23:54;12.30;99.90
55369;DHT22;41247;49.736;8.752;2022-10-19T06:27:49;12.40;99.90
55369;DHT22;41247;49.736;8.752;2022-10-19T06:31:33;12.50;99.90
55369;DHT22;41247;49.736;8.752;2022-10-19T06:35:14;12.50;99.90
55369;DHT22;41247;49.736;8.752;2022-10-19T06:39:17;12.60;99.90
55369;DHT22;41247;49.736;8.752;2022-10-19T06:47:22;12.80;99.90
55369;DHT22;41247;49.736;8.752;2022-10-19T06:51:24;12.80;99.90
55369;DHT22;41247;49.736;8.752;2022-10-19T06:55:25;12.90;99.90
55369;DHT22;41247;49.736;8.752;2022-10-19T06:59:06;12.90;99.90
55369;DHT22;41247;49.736;8.752;2022-10-19T07:02:46;12.90;99.90
55369;DHT22;41247;49.736;8.752;2022-10-19T07:06:27;12.90;99.90
55369;DHT22;41247;49.736;8.752;2022-10-19T07:10:08;12.90;99.90
55369;DHT22;41247;49.736;8.752;2022-10-19T07:13:49;12.90;99.90
55369;DHT22;41247;49.736;8.752;2022-10-19T07:17:31;12.90;99.90
55369;DHT22;41247;49.736;8.752;2022-10-19T07:21:13;12.90;99.90
55369;DHT22;41247;49.736;8.752;2022-10-19T07:24:55;13.00;99.90
55369;DHT22;41247;49.736;8.752;2022-10-19T07:28:37;13.10;99.90
55369;DHT22;41247;49.736;8.752;2022-10-19T07:32:19;13.20;99.90
55369;DHT22;41247;49.736;8.752;2022-10-19T07:36:05;13.30;99.90
55369;DHT22;41247;49.736;8.752;2022-10-19T07:39:46;13.40;99.90
55369;DHT22;41247;49.736;8.752;2022-10-19T07:43:27;13.50;99.90
55369;DHT22;41247;49.736;8.752;2022-10-19T07:47:08;13.60;99.90
55369;DHT22;41247;49.736;8.752;2022-10-19T07:50:48;13.60;99.90
55369;DHT22;41247;49.736;8.752;2022-10-19T07:54:30;13.60;99.90
55369;DHT22;41247;49.736;8.752;2022-10-19T07:58:11;13.60;99.90
55369;DHT22;41247;49.736;8.752;2022-10-19T08:01:51;13.60;99.90
55369;DHT22;41247;49.736;8.752;2022-10-19T08:05:32;13.60;99.90
55369;DHT22;41247;49.736;8.752;2022-10-19T08:09:13;13.70;99.90
55369;DHT22;41247;49.736;8.752;2022-10-19T08:12:54;13.80;99.90
55369;DHT22;41247;49.736;8.752;2022-10-19T08:16:37;13.90;99.90
55369;DHT22;41247;49.736;8.752;2022-10-19T08:20:19;13.90;99.90
55369;DHT22;41247;49.736;8.752;2022-10-19T08:23:59;13.90;99.90
55369;DHT22;41247;49.736;8.752;2022-10-19T08:27:40;13.90;99.90
55369;DHT22;41247;49.736;8.752;2022-10-19T08:31:22;14.00;99.90
55369;DHT22;41247;49.736;8.752;2022-10-19T08:35:03;14.00;99.90
55369;DHT22;41247;49.736;8.752;2022-10-19T08:38:45;14.20;99.90
55369;DHT22;41247;49.736;8.752;2022-10-19T08:42:45;14.10;99.90
55369;DHT22;41247;49.736;8.752;2022-10-19T08:46:46;14.20;99.90
55369;DHT22;41247;49.736;8.752;2022-10-19T08:50:41;14.30;99.90
55369;DHT22;41247;49.736;8.752;2022-10-19T08:54:29;14.40;99.90
55369;DHT22;41247;49.736;8.752;2022-10-19T08:58:35;14.50;99.90
55369;DHT22;41247;49.736;8.752;2022-10-19T09:06:31;14.30;99.90
55369;DHT22;41247;49.736;8.752;2022-10-19T09:10:21;14.30;99.90
55369;DHT22;41247;49.736;8.752;2022-10-19T09:14:12;14.30;99.90
55369;DHT22;41247;49.736;8.752;2022-10-19T09:17:53;14.40;99.90
55369;DHT22;41247;49.736;8.752;2022-10-19T09:21:47;14.40;99.90
55369;DHT22;41247;49.736;8.752;2022-10-19T09:25:32;14.40;99.90
55369;DHT22;41247;49.736;8.752;2022-10-19T09:29:31;14.60;99.90
55369;DHT22;41247;49.736;8.752;2022-10-19T09:33:25;14.50;99.90
55369;DHT22;41247;49.736;8.752;2022-10-19T09:37:08;14.60;99.90
55369;DHT22;41247;49.736;8.752;2022-10-19T09:40:50;14.80;99.90
55369;DHT22;41247;49.736;8.752;2022-10-19T09:44:31;14.90;99.90
55369;DHT22;41247;49.736;8.752;2022-10-19T09:48:25;14.90;99.90
55369;DHT22;41247;49.736;8.752;2022-10-19T09:52:35;14.90;99.90
55369;DHT22;41247;49.736;8.752;2022-10-19T09:56:20;15.00;99.90
55369;DHT22;41247;49.736;8.752;2022-10-19T10:00:02;15.00;99.90
55369;DHT22;41247;49.736;8.752;2022-10-19T10:03:44;15.00;99.90
55369;DHT22;41247;49.736;8.752;2022-10-19T10:07:34;15.10;99.90
55369;DHT22;41247;49.736;8.752;2022-10-19T10:11:27;15.30;99.90
55369;DHT22;41247;49.736;8.752;2022-10-19T10:15:18;15.40;99.90
55369;DHT22;41247;49.736;8.752;2022-10-19T10:19:05;15.60;99.90
55369;DHT22;41247;49.736;8.752;2022-10-19T10:23:02;15.80;99.90
55369;DHT22;41247;49.736;8.752;2022-10-19T10:27:04;16.10;99.90
55369;DHT22;41247;49.736;8.752;2022-10-19T10:30:47;16.20;99.90
55369;DHT22;41247;49.736;8.752;2022-10-19T10:35:03;16.20;99.90
55369;DHT22;41247;49.736;8.752;2022-10-19T10:38:50;16.30;99.90
55369;DHT22;41247;49.736;8.752;2022-10-19T10:42:40;16.40;99.90
55369;DHT22;41247;49.736;8.752;2022-10-19T10:46:31;16.30;99.90
55369;DHT22;41247;49.736;8.752;2022-10-19T10:50:29;16.20;99.90
55369;DHT22;41247;49.736;8.752;2022-10-19T10:54:24;16.40;99.90
55369;DHT22;41247;49.736;8.752;2022-10-19T10:58:23;16.50;99.90
55369;DHT22;41247;49.736;8.752;2022-10-19T11:02:37;16.40;99.90
55369;DHT22;41247;49.736;8.752;2022-10-19T11:06:22;16.50;99.90
55369;DHT22;41247;49.736;8.752;2022-10-19T11:10:23;16.60;99.90
55369;DHT22;41247;49.736;8.752;2022-10-19T11:14:29;16.60;99.90
55369;DHT22;41247;49.736;8.752;2022-10-19T11:18:15;16.60;99.90
55369;DHT22;41247;49.736;8.752;2022-10-19T11:22:27;16.70;99.90
55369;DHT22;41247;49.736;8.752;2022-10-19T11:26:24;16.70;99.90
55369;DHT22;41247;49.736;8.752;2022-10-19T11:38:01;16.40;99.90
55369;DHT22;41247;49.736;8.752;2022-10-19T11:58:46;16.40;99.90
55369;DHT22;41247;49.736;8.752;2022-10-19T12:06:57;16.40;99.90
55369;DHT22;41247;49.736;8.752;2022-10-19T12:10:55;16.20;99.90
55369;DHT22;41247;49.736;8.752;2022-10-19T12:14:44;16.10;99.90
55369;DHT22;41247;49.736;8.752;2022-10-19T12:18:53;16.00;99.90
55369;DHT22;41247;49.736;8.752;2022-10-19T12:22:35;16.00;99.90
55369;DHT22;41247;49.736;8.752;2022-10-19T12:26:19;16.00;99.90
55369;DHT22;41247;49.736;8.752;2022-10-19T12:34:01;15.90;99.90
55369;DHT22;41247;49.736;8.752;2022-10-19T12:38:13;15.80;99.90
55369;DHT22;41247;49.736;8.752;2022-10-19T12:42:12;15.60;99.90
55369;DHT22;41247;49.736;8.752;2022-10-19T12:46:17;15.50;99.90
55369;DHT22;41247;49.736;8.752;2022-10-19T12:50:01;15.40;99.90
55369;DHT22;41247;49.736;8.752;2022-10-19T12:53:44;15.40;99.90
55369;DHT22;41247;49.736;8.752;2022-10-19T12:57:28;15.30;99.90
55369;DHT22;41247;49.736;8.752;2022-10-19T13:05:31;15.20;99.90
55369;DHT22;41247;49.736;8.752;2022-10-19T13:09:36;15.20;99.90
55369;DHT22;41247;49.736;8.752;2022-10-19T13:17:43;15.20;99.90
55369;DHT22;41247;49.736;8.752;2022-10-19T13:21:44;15.20;99.90
55369;DHT22;41247;49.736;8.752;2022-10-19T13:25:30;15.30;99.90
55369;DHT22;41247;49.736;8.752;2022-10-19T13:29:25;15.30;99.90
55369;DHT22;41247;49.736;8.752;2022-10-19T13:37:03;15.40;99.90
55369;DHT22;41247;49.736;8.752;2022-10-19T13:44:30;15.30;99.90
55369;DHT22;41247;49.736;8.752;2022-10-19T13:48:20;15.20;99.90
55369;DHT22;41247;49.736;8.752;2022-10-19T14:05:40;15.20;99.90
55369;DHT22;41247;49.736;8.752;2022-10-19T14:10:04;15.20;99.90
55369;DHT22;41247;49.736;8.752;2022-10-19T14:17:50;15.20;99.90
55369;DHT22;41247;49.736;8.752;2022-10-19T14:21:33;15.10;99.90
55369;DHT22;41247;49.736;8.752;2022-10-19T14:25:26;15.00;99.90
55369;DHT22;41247;49.736;8.752;2022-10-19T14:29:11;14.80;99.90
55369;DHT22;41247;49.736;8.752;2022-10-19T14:32:54;14.70;99.90
55369;DHT22;41247;49.736;8.752;2022-10-19T14:36:37;14.60;99.90
55369;DHT22;41247;49.736;8.752;2022-10-19T14:40:27;14.60;99.90
55369;DHT22;41247;49.736;8.752;2022-10-19T14:44:37;14.50;99.90
55369;DHT22;41247;49.736;8.752;2022-10-19T14:48:17;14.40;99.90
55369;DHT22;41247;49.736;8.752;2022-10-19T14:51:59;14.40;99.90
55369;DHT22;41247;49.736;8.752;2022-10-19T14:55:41;14.40;99.90
55369;DHT22;41247;49.736;8.752;2022-10-19T14:59:26;14.40;99.90
55369;DHT22;41247;49.736;8.752;2022-10-19T15:03:12;14.40;99.90
55369;DHT22;41247;49.736;8.752;2022-10-19T15:07:02;14.30;99.90
55369;DHT22;41247;49.736;8.752;2022-10-19T15:10:45;14.20;99.90
55369;DHT22;41247;49.736;8.752;2022-10-19T15:14:28;14.20;99.90
55369;DHT22;41247;49.736;8.752;2022-10-19T15:18:15;14.10;99.90
55369;DHT22;41247;49.736;8.752;2022-10-19T15:22:17;14.00;99.90
55369;DHT22;41247;49.736;8.752;2022-10-19T15:26:02;13.90;99.90
55369;DHT22;41247;49.736;8.752;2022-10-19T15:29:56;13.80;99.90
55369;DHT22;41247;49.736;8.752;2022-10-19T15:33:59;13.70;99.90
55369;DHT22;41247;49.736;8.752;2022-10-19T15:37:42;13.70;99.90
55369;DHT22;41247;49.736;8.752;2022-10-19T15:41:28;13.60;99.90
55369;DHT22;41247;49.736;8.752;2022-10-19T15:45:33;13.60;99.90
55369;DHT22;41247;49.736;8.752;2022-10-19T15:52:58;13.50;99.90
55369;DHT22;41247;49.736;8.752;2022-10-19T15:56:39;13.40;99.90
55369;DHT22;41247;49.736;8.752;2022-10-19T16:00:20;13.30;99.90
55369;DHT22;41247;49.736;8.752;2022-10-19T16:04:01;13.30;99.90
55369;DHT22;41247;49.736;8.752;2022-10-19T16:07:41;13.30;99.90
55369;DHT22;41247;49.736;8.752;2022-10-19T16:11:22;13.20;99.90
55369;DHT22;41247;49.736;8.752;2022-10-19T16:15:04;13.10;99.90
55369;DHT22;41247;49.736;8.752;2022-10-19T16:18:45;13.00;99.90
55369;DHT22;41247;49.736;8.752;2022-10-19T16:22:26;12.90;99.90
55369;DHT22;41247;49.736;8.752;2022-10-19T16:26:06;12.80;99.90
55369;DHT22;41247;49.736;8.752;2022-10-19T16:29:47;12.80;99.90
55369;DHT22;41247;49.736;8.752;2022-10-19T16:33:28;12.70;99.90
55369;DHT22;41247;49.736;8.752;2022-10-19T16:37:08;12.70;99.90
55369;DHT22;41247;49.736;8.752;2022-10-19T16:40:49;12.60;99.90
55369;DHT22;41247;49.736;8.752;2022-10-19T16:44:29;12.60;99.90
55369;DHT22;41247;49.736;8.752;2022-10-19T16:48:13;12.60;99.90
55369;DHT22;41247;49.736;8.752;2022-10-19T16:51:53;12.50;99.90
55369;DHT22;41247;49.736;8.752;2022-10-19T16:55:37;12.50;99.90
55369;DHT22;41247;49.736;8.752;2022-10-19T16:59:19;12.40;99.90
55369;DHT22;41247;49.736;8.752;2022-10-19T17:03:00;12.40;99.90
55369;DHT22;41247;49.736;8.752;2022-10-19T17:06:41;12.30;99.90
55369;DHT22;41247;49.736;8.752;2022-10-19T17:10:21;12.30;99.90
55369;DHT22;41247;49.736;8.752;2022-10-19T17:14:09;12.30;99.90
55369;DHT22;41247;49.736;8.752;2022-10-19T17:17:52;12.30;99.90
55369;DHT22;41247;49.736;8.752;2022-10-19T17:21:34;12.30;99.90
55369;DHT22;41247;49.736;8.752;2022-10-19T17:25:16;12.30;99.90
55369;DHT22;41247;49.736;8.752;2022-10-19T17:28:58;12.30;99.90
55369;DHT22;41247;49.736;8.752;2022-10-19T17:32:39;12.30;99.90
55369;DHT22;41247;49.736;8.752;2022-10-19T17:36:22;12.30;99.90
55369;DHT22;41247;49.736;8.752;2022-10-19T17:40:04;12.30;99.90
55369;DHT22;41247;49.736;8.752;2022-10-19T17:43:47;12.30;99.90
55369;DHT22;41247;49.736;8.752;2022-10-19T17:47:28;12.30;99.90
55369;DHT22;41247;49.736;8.752;2022-10-19T17:51:23;12.30;99.90
55369;DHT22;41247;49.736;8.752;2022-10-19T17:55:05;12.30;99.90
55369;DHT22;41247;49.736;8.752;2022-10-19T17:58:46;12.30;99.90
55369;DHT22;41247;49.736;8.752;2022-10-19T18:02:27;12.30;99.90
55369;DHT22;41247;49.736;8.752;2022-10-19T18:06:14;12.30;99.90
55369;DHT22;41247;49.736;8.752;2022-10-19T18:09:56;12.20;99.90
55369;DHT22;41247;49.736;8.752;2022-10-19T18:13:37;12.20;99.90
55369;DHT22;41247;49.736;8.752;2022-10-19T18:17:19;12.00;99.90
55369;DHT22;41247;49.736;8.752;2022-10-19T18:21:06;11.90;99.90
55369;DHT22;41247;49.736;8.752;2022-10-19T18:24:48;11.70;99.90
55369;DHT22;41247;49.736;8.752;2022-10-19T18:28:30;11.70;99.90
55369;DHT22;41247;49.736;8.752;2022-10-19T18:32:12;11.60;99.90
55369;DHT22;41247;49.736;8.752;2022-10-19T18:35:57;11.50;99.90
55369;DHT22;41247;49.736;8.752;2022-10-19T18:39:37;11.40;99.90
55369;DHT22;41247;49.736;8.752;2022-10-19T18:43:18;11.40;99.90
55369;DHT22;41247;49.736;8.752;2022-10-19T18:46:59;11.30;99.90
55369;DHT22;41247;49.736;8.752;2022-10-19T18:50:39;11.20;99.90
55369;DHT22;41247;49.736;8.752;2022-10-19T18:54:20;11.20;99.90
55369;DHT22;41247;49.736;8.752;2022-10-19T18:58:00;11.20;99.90
55369;DHT22;41247;49.736;8.752;2022-10-19T19:01:41;11.20;99.90
55369;DHT22;41247;49.736;8.752;2022-10-19T19:05:22;11.20;99.90
55369;DHT22;41247;49.736;8.752;2022-10-19T19:09:08;11.30;99.90
55369;DHT22;41247;49.736;8.752;2022-10-19T19:12:50;11.30;99.90
55369;DHT22;41247;49.736;8.752;2022-10-19T19:16:35;11.30;99.90
55369;DHT22;41247;49.736;8.752;2022-10-19T19:20:17;11.30;99.90
55369;DHT22;41247;49.736;8.752;2022-10-19T19:24:00;11.30;99.90
55369;DHT22;41247;49.736;8.752;2022-10-19T19:27:43;11.30;99.90
55369;DHT22;41247;49.736;8.752;2022-10-19T19:31:24;11.30;99.90
55369;DHT22;41247;49.736;8.752;2022-10-19T19:35:05;11.20;99.90
55369;DHT22;41247;49.736;8.752;2022-10-19T19:38:46;11.20;99.90
55369;DHT22;41247;49.736;8.752;2022-10-19T19:42:26;11.20;99.90
55369;DHT22;41247;49.736;8.752;2022-10-19T19:46:10;11.10;99.90
55369;DHT22;41247;49.736;8.752;2022-10-19T19:49:53;11.10;99.90
55369;DHT22;41247;49.736;8.752;2022-10-19T19:53:35;11.00;99.90
55369;DHT22;41247;49.736;8.752;2022-10-19T19:57:16;11.00;99.90
55369;DHT22;41247;49.736;8.752;2022-10-19T20:00:57;11.10;99.90
55369;DHT22;41247;49.736;8.752;2022-10-19T20:04:37;11.10;99.90
55369;DHT22;41247;49.736;8.752;2022-10-19T20:08:18;11.10;99.90
55369;DHT22;41247;49.736;8.752;2022-10-19T20:11:58;11.10;99.90
55369;DHT22;41247;49.736;8.752;2022-10-19T20:15:39;11.20;99.90
55369;DHT22;41247;49.736;8.752;2022-10-19T20:19:19;11.20;99.90
55369;DHT22;41247;49.736;8.752;2022-10-19T20:23:00;11.20;99.90
55369;DHT22;41247;49.736;8.752;2022-10-19T20:26:41;11.20;99.90
55369;DHT22;41247;49.736;8.752;2022-10-19T20:30:21;11.20;99.90
55369;DHT22;41247;49.736;8.752;2022-10-19T20:34:06;11.30;99.90
55369;DHT22;41247;49.736;8.752;2022-10-19T20:37:49;11.30;99.90
55369;DHT22;41247;49.736;8.752;2022-10-19T20:41:29;11.30;99.90
55369;DHT22;41247;49.736;8.752;2022-10-19T20:45:10;11.40;99.90
55369;DHT22;41247;49.736;8.752;2022-10-19T20:48:52;11.40;99.90
55369;DHT22;41247;49.736;8.752;2022-10-19T20:52:34;11.40;99.90
55369;DHT22;41247;49.736;8.752;2022-10-19T20:56:17;11.40;99.90
55369;DHT22;41247;49.736;8.752;2022-10-19T21:00:03;11.40;99.90
55369;DHT22;41247;49.736;8.752;2022-10-19T21:03:46;11.40;99.90
55369;DHT22;41247;49.736;8.752;2022-10-19T21:07:27;11.30;99.90
55369;DHT22;41247;49.736;8.752;2022-10-19T21:11:19;11.30;99.90
55369;DHT22;41247;49.736;8.752;2022-10-19T21:15:01;11.20;99.90
55369;DHT22;41247;49.736;8.752;2022-10-19T21:18:43;11.20;99.90
55369;DHT22;41247;49.736;8.752;2022-10-19T21:22:24;11.20;99.90
55369;DHT22;41247;49.736;8.752;2022-10-19T21:26:07;11.10;99.90
55369;DHT22;41247;49.736;8.752;2022-10-19T21:29:48;11.10;99.90
55369;DHT22;41247;49.736;8.752;2022-10-19T21:33:28;11.10;99.90
55369;DHT22;41247;49.736;8.752;2022-10-19T21:37:09;11.10;99.90
55369;DHT22;41247;49.736;8.752;2022-10-19T21:40:49;11.00;99.90
55369;DHT22;41247;49.736;8.752;2022-10-19T21:44:30;11.00;99.90
55369;DHT22;41247;49.736;8.752;2022-10-19T21:48:11;11.00;99.90
55369;DHT22;41247;49.736;8.752;2022-10-19T21:51:52;11.00;99.90
55369;DHT22;41247;49.736;8.752;2022-10-19T21:55:34;11.00;99.90
55369;DHT22;41247;49.736;8.752;2022-10-19T21:59:15;11.00;99.90
55369;DHT22;41247;49.736;8.752;2022-10-19T22:02:56;11.00;99.90
55369;DHT22;41247;49.736;8.752;2022-10-19T22:06:37;10.90;99.90
55369;DHT22;41247;49.736;8.752;2022-10-19T22:10:18;10.90;99.90
55369;DHT22;41247;49.736;8.752;2022-10-19T22:14:00;10.90;99.90
55369;DHT22;41247;49.736;8.752;2022-10-19T22:17:41;10.90;99.90
55369;DHT22;41247;49.736;8.752;2022-10-19T22:21:25;10.90;99.90
55369;DHT22;41247;49.736;8.752;2022-10-19T22:25:07;10.90;99.90
55369;DHT22;41247;49.736;8.752;2022-10-19T22:28:48;10.90;99.90
55369;DHT22;41247;49.736;8.752;2022-10-19T22:32:29;10.80;99.90
55369;DHT22;41247;49.736;8.752;2022-10-19T22:36:10;10.80;99.90
55369;DHT22;41247;49.736;8.752;2022-10-19T22:39:51;10.80;99.90
55369;DHT22;41247;49.736;8.752;2022-10-19T22:43:32;10.70;99.90
55369;DHT22;41247;49.736;8.752;2022-10-19T22:47:13;10.70;99.90
55369;DHT22;41247;49.736;8.752;2022-10-19T22:50:55;10.60;99.90
55369;DHT22;41247;49.736;8.752;2022-10-19T22:54:35;10.60;99.90
55369;DHT22;41247;49.736;8.752;2022-10-19T22:58:16;10.60;99.90
55369;DHT22;41247;49.736;8.752;2022-10-19T23:01:57;10.60;99.90
55369;DHT22;41247;49.736;8.752;2022-10-19T23:05:38;10.60;99.90
55369;DHT22;41247;49.736;8.752;2022-10-19T23:09:19;10.60;99.90
55369;DHT22;41247;49.736;8.752;2022-10-19T23:12:59;10.60;99.90
55369;DHT22;41247;49.736;8.752;2022-10-19T23:16:40;10.50;99.90
55369;DHT22;41247;49.736;8.752;2022-10-19T23:20:20;10.60;99.90
55369;DHT22;41247;49.736;8.752;2022-10-19T23:24:01;10.60;99.90
55369;DHT22;41247;49.736;8.752;2022-10-19T23:27:42;10.60;99.90
55369;DHT22;41247;49.736;8.752;2022-10-19T23:31:26;10.50;99.90
55369;DHT22;41247;49.736;8.752;2022-10-19T23:35:07;10.50;99.90
55369;DHT22;41247;49.736;8.752;2022-10-19T23:38:50;10.50;99.90
55369;DHT22;41247;49.736;8.752;2022-10-19T23:42:31;10.50;99.90
55369;DHT22;41247;49.736;8.752;2022-10-19T23:46:12;10.50;99.90
55369;DHT22;41247;49.736;8.752;2022-10-19T23:49:52;10.50;99.90
55369;DHT22;41247;49.736;8.752;2022-10-19T23:53:35;10.50;99.90
55369;DHT22;41247;49.736;8.752;2022-10-19T23:57:17;10.60;99.90
